LSZR/ACH METAR and TAF weather

Enter ICAO airport designator
Station Type Date Time Source
LSZR METAR 2019/06/27 07:50 UTC NOAA

LSZR 270750Z VRB03KT CAVOK 26/23 Q1024 NOSIG RMK E


Station Type Date Time Source
LSZR Decoded METAR 2019/06/27 07:50 UTC NOAA

Saint Gallen-Altenrhein, Switzerland (LSZR) 47-29-06N 009-33-43E
Jun 27, 2019 - 03:50 AM EDT / 2019.06.27 0750 UTC
Wind: Variable at 3 MPH (3 KT):0
Visibility: greater than 7 mile(s):0
Temperature: 78 F (26 C)
Dew Point: 73 F (23 C)
Relative Humidity: 83%
Pressure (altimeter): 30.24 in. Hg (1024 hPa)
ob: LSZR 270750Z VRB03KT CAVOK 26/23 Q1024 NOSIG RMK E
cycle: 8

Station Type Date Time Source
LSZR TAF 2014/12/22 20:03 UTC NOAA

TAF
AMD LSZR 222054Z 2220/2224 CNL

Example: see airport list